Time;durP1;ratioP1;P1;durP2;ratioP2;P2;SDS_P1;SDS_P2;PMS_P1;PMS_P2;Temp;Humidity;BMP_temperature;BMP_pressure;BME280_temperature;BME280_humidity;BME280_pressure;Samples;Min_cycle;Max_cycle;Signal;HPM_P1;HPM_P2
2022/09/30 00:02:24;;;;;;;2.40;2.30;;;22.20;41.10;;;;;;4994764;28;20726;-57
2022/09/30 00:04:50;;;;;;;2.57;1.80;;;22.20;41.10;;;;;;5000790;28;20227;-58
2022/09/30 00:07:16;;;;;;;2.33;2.17;;;22.20;41.10;;;;;;4998163;28;20274;-58
2022/09/30 00:09:41;;;;;;;1.97;1.87;;;22.20;41.10;;;;;;4999425;28;20235;-63
2022/09/30 00:12:07;;;;;;;2.07;1.97;;;22.20;41.10;;;;;;4993191;28;20453;-58
2022/09/30 00:14:33;;;;;;;1.93;1.83;;;22.20;41.10;;;;;;4993738;28;20562;-58
2022/09/30 00:16:58;;;;;;;2.00;1.80;;;22.20;41.10;;;;;;4994046;28;20219;-58
2022/09/30 00:19:24;;;;;;;1.97;1.87;;;22.20;41.10;;;;;;4993618;28;20230;-60
2022/09/30 00:21:49;;;;;;;2.00;1.90;;;22.20;41.10;;;;;;4996611;28;20223;-59
2022/09/30 00:24:15;;;;;;;3.60;2.30;;;22.20;41.10;;;;;;4996521;28;20220;-59
2022/09/30 00:26:41;;;;;;;2.13;2.03;;;22.20;41.10;;;;;;5000844;28;20236;-59
2022/09/30 00:29:06;;;;;;;2.10;2.00;;;22.20;41.10;;;;;;5004391;28;20219;-60
2022/09/30 00:31:34;;;;;;;2.17;2.03;;;22.20;41.10;;;;;;4996956;28;20223;-57
2022/09/30 00:34:05;;;;;;;2.20;2.10;;;22.20;41.10;;;;;;4996092;28;20613;-57
2022/09/30 00:36:39;;;;;;;1.97;1.87;;;22.20;41.10;;;;;;4999040;28;20556;-57
2022/09/30 00:39:07;;;;;;;2.30;2.20;;;22.20;41.10;;;;;;4998684;28;21148;-57
2022/09/30 00:41:33;;;;;;;2.47;2.30;;;22.20;41.10;;;;;;5001405;28;20552;-58
2022/09/30 00:43:58;;;;;;;2.17;2.07;;;22.20;41.10;;;;;;4995837;28;20792;-63
2022/09/30 00:46:35;;;;;;;2.30;2.03;;;22.20;41.10;;;;;;4997913;28;20914;-57
2022/09/30 00:49:14;;;;;;;2.10;2.00;;;22.20;41.10;;;;;;4999126;28;20279;-57
2022/09/30 00:51:47;;;;;;;2.10;1.90;;;22.20;41.20;;;;;;4999860;28;20627;-58
2022/09/30 00:54:18;;;;;;;2.27;2.13;;;22.20;41.10;;;;;;4989591;28;20468;-58
2022/09/30 00:56:49;;;;;;;2.03;1.93;;;22.20;41.10;;;;;;5000445;28;20454;-56
2022/09/30 00:59:26;;;;;;;2.10;2.00;;;22.20;41.10;;;;;;4998984;28;20637;-57
2022/09/30 01:01:52;;;;;;;2.70;2.20;;;22.20;41.10;;;;;;4995315;28;20473;-57
2022/09/30 01:04:21;;;;;;;2.00;1.90;;;22.20;41.10;;;;;;5000158;28;20476;-57
2022/09/30 01:06:47;;;;;;;1.90;1.80;;;22.20;41.10;;;;;;4999927;28;21149;-57
2022/09/30 01:09:13;;;;;;;2.30;2.20;;;22.20;41.10;;;;;;5001041;28;20468;-57
2022/09/30 01:11:39;;;;;;;1.97;1.87;;;22.20;41.10;;;;;;4998100;28;20245;-59
2022/09/30 01:14:18;;;;;;;1.90;1.80;;;22.20;41.10;;;;;;4998787;28;20231;-58
2022/09/30 01:17:09;;;;;;;2.10;2.00;;;22.20;41.20;;;;;;5000300;28;20460;-60
2022/09/30 01:19:54;;;;;;;2.47;2.03;;;22.20;41.10;;;;;;4995765;28;20872;-57
2022/09/30 01:22:37;;;;;;;2.63;2.50;;;22.20;41.10;;;;;;4995767;28;20459;-58
2022/09/30 01:25:08;;;;;;;1.90;1.80;;;22.20;41.10;;;;;;4996632;28;20464;-57
2022/09/30 01:28:08;;;;;;;2.20;2.10;;;22.20;41.10;;;;;;5000631;28;20469;-57
2022/09/30 01:30:58;;;;;;;2.00;1.90;;;22.20;41.10;;;;;;4996279;28;20493;-57
2022/09/30 01:36:27;;;;;;;1.90;1.80;;;22.20;41.10;;;;;;5023038;23;20464;-86
2022/09/30 01:39:11;;;;;;;1.93;1.83;;;22.20;41.10;;;;;;5015479;28;20456;-87
2022/09/30 01:41:54;;;;;;;2.03;1.93;;;22.20;41.10;;;;;;5019343;28;20547;-87
2022/09/30 01:44:54;;;;;;;3.00;2.10;;;22.20;41.10;;;;;;5015567;28;20452;-87
2022/09/30 01:47:31;;;;;;;1.80;1.70;;;22.20;41.10;;;;;;5004330;28;20471;-86
2022/09/30 01:50:13;;;;;;;1.90;1.70;;;22.20;41.10;;;;;;5013763;28;21088;-87
2022/09/30 01:53:02;;;;;;;1.97;1.87;;;22.20;41.10;;;;;;5018298;28;20448;-86
2022/09/30 01:55:51;;;;;;;2.83;1.80;;;22.20;41.10;;;;;;5017667;28;20591;-86
2022/09/30 01:58:25;;;;;;;2.00;1.90;;;22.20;41.20;;;;;;5001000;28;20490;-87
2022/09/30 02:00:54;;;;;;;2.20;2.10;;;22.20;41.10;;;;;;5010787;28;20970;-87
2022/09/30 02:03:33;;;;;;;1.80;1.70;;;22.10;41.10;;;;;;5010892;28;20457;-87
2022/09/30 02:06:07;;;;;;;2.03;1.93;;;22.20;41.10;;;;;;5019592;28;20971;-87
2022/09/30 02:08:42;;;;;;;1.90;1.80;;;22.20;41.10;;;;;;5016355;28;20488;-87
2022/09/30 02:11:17;;;;;;;1.90;1.80;;;22.20;41.10;;;;;;5016962;28;20546;-87
2022/09/30 02:14:06;;;;;;;1.90;1.80;;;22.20;41.10;;;;;;5015377;28;20439;-88
2022/09/30 02:16:47;;;;;;;1.80;1.70;;;22.20;41.10;;;;;;5019494;28;20462;-87
2022/09/30 02:19:21;;;;;;;2.00;1.90;;;22.10;41.10;;;;;;5017004;28;20456;-87
2022/09/30 02:21:55;;;;;;;1.83;1.73;;;22.10;41.10;;;;;;5020755;28;20455;-87
2022/09/30 02:24:24;;;;;;;1.70;1.60;;;22.10;41.10;;;;;;5020052;28;21023;-86
2022/09/30 02:26:53;;;;;;;1.70;1.60;;;22.10;41.10;;;;;;5019173;28;20546;-87
2022/09/30 02:29:31;;;;;;;1.70;1.60;;;22.20;41.10;;;;;;5013652;28;20468;-86
2022/09/30 02:32:03;;;;;;;1.80;1.70;;;22.10;41.10;;;;;;5015966;28;20579;-87
2022/09/30 02:34:41;;;;;;;1.93;1.83;;;22.20;41.10;;;;;;5014569;28;20957;-87
2022/09/30 02:37:14;;;;;;;1.87;1.77;;;22.10;41.10;;;;;;4999321;28;20440;-87
2022/09/30 02:39:58;;;;;;;2.23;2.03;;;22.20;41.10;;;;;;5011849;28;20457;-86
2022/09/30 02:42:27;;;;;;;2.03;1.93;;;22.20;41.10;;;;;;5015028;28;20483;-87
2022/09/30 02:45:00;;;;;;;2.00;1.90;;;22.20;41.10;;;;;;5015242;28;20463;-87
2022/09/30 02:47:48;;;;;;;2.13;2.03;;;22.10;41.10;;;;;;4994836;28;20684;-86
2022/09/30 02:50:36;;;;;;;1.87;1.77;;;22.10;41.10;;;;;;5015432;28;20461;-88
2022/09/30 02:53:10;;;;;;;2.00;1.90;;;22.20;41.20;;;;;;5012844;28;20477;-88
2022/09/30 02:56:05;;;;;;;1.90;1.80;;;22.10;41.10;;;;;;5010649;28;20457;-87
2022/09/30 02:58:33;;;;;;;1.90;1.80;;;22.10;41.10;;;;;;4996391;28;20621;-86
2022/09/30 03:00:59;;;;;;;1.70;1.60;;;22.10;41.10;;;;;;5012380;28;20491;-86
2022/09/30 03:03:33;;;;;;;1.90;1.80;;;22.10;41.10;;;;;;5014465;28;20500;-86
2022/09/30 03:05:59;;;;;;;1.63;1.53;;;22.10;41.10;;;;;;5012199;28;20218;-87
2022/09/30 03:08:25;;;;;;;1.77;1.67;;;22.10;41.10;;;;;;4999596;28;20564;-87
2022/09/30 03:10:51;;;;;;;1.90;1.80;;;22.10;41.10;;;;;;5015025;28;20237;-87
2022/09/30 03:13:50;;;;;;;1.83;1.73;;;22.20;41.10;;;;;;5012776;28;20218;-87
2022/09/30 03:16:43;;;;;;;1.80;1.70;;;22.20;41.10;;;;;;5011304;28;20630;-86
2022/09/30 03:19:43;;;;;;;1.60;1.50;;;22.10;41.10;;;;;;5014216;28;20447;-86
2022/09/30 03:22:24;;;;;;;2.00;1.90;;;22.10;41.10;;;;;;5012146;28;20489;-87
2022/09/30 03:25:04;;;;;;;2.00;1.90;;;22.20;41.10;;;;;;5012485;28;20599;-87
2022/09/30 03:28:06;;;;;;;1.80;1.70;;;22.10;41.10;;;;;;5009687;28;20510;-86
2022/09/30 03:30:36;;;;;;;1.77;1.67;;;22.10;41.10;;;;;;5011531;28;20558;-87
2022/09/30 03:33:22;;;;;;;1.90;1.80;;;22.20;41.10;;;;;;5009423;28;20594;-87
2022/09/30 03:36:14;;;;;;;1.87;1.77;;;22.10;41.10;;;;;;5008164;28;20560;-87
2022/09/30 03:39:00;;;;;;;1.97;1.87;;;22.10;41.10;;;;;;5013414;28;20529;-87
2022/09/30 03:41:49;;;;;;;2.00;1.80;;;22.10;41.10;;;;;;5012713;28;20472;-86
2022/09/30 03:44:35;;;;;;;1.80;1.70;;;22.20;41.10;;;;;;5009175;28;20479;-86
2022/09/30 03:47:15;;;;;;;2.10;1.90;;;22.20;41.10;;;;;;4998556;28;20456;-87
2022/09/30 03:49:54;;;;;;;1.90;1.80;;;22.10;41.10;;;;;;5013544;28;20482;-86
2022/09/30 03:52:22;;;;;;;1.70;1.60;;;22.10;41.10;;;;;;5011285;28;20464;-87
2022/09/30 03:54:59;;;;;;;1.80;1.70;;;22.10;41.80;;;;;;5008039;28;20464;-86
2022/09/30 03:57:27;;;;;;;2.33;2.13;;;22.10;41.10;;;;;;5015258;28;20476;-86
2022/09/30 03:59:53;;;;;;;1.93;1.83;;;22.10;41.10;;;;;;5013543;28;20459;-87
2022/09/30 04:02:19;;;;;;;1.93;1.83;;;22.10;41.10;;;;;;5013451;28;20829;-86
2022/09/30 04:04:44;;;;;;;1.97;1.87;;;22.10;41.10;;;;;;5016881;28;20223;-87
2022/09/30 04:07:11;;;;;;;2.50;2.30;;;22.10;41.10;;;;;;5012545;28;20239;-87
2022/09/30 04:09:37;;;;;;;1.80;1.70;;;22.20;41.10;;;;;;5009709;28;20231;-87
2022/09/30 04:12:03;;;;;;;1.83;1.73;;;22.10;41.10;;;;;;5011991;28;20460;-89
2022/09/30 04:14:29;;;;;;;2.03;1.93;;;22.20;41.10;;;;;;5013791;28;20487;-86
2022/09/30 04:16:54;;;;;;;1.87;1.77;;;22.10;41.10;;;;;;5014244;28;20460;-87
2022/09/30 04:19:20;;;;;;;1.97;1.87;;;22.10;41.10;;;;;;5014431;28;20227;-87
2022/09/30 04:21:46;;;;;;;2.03;1.93;;;22.10;41.10;;;;;;5003394;28;20234;-87
2022/09/30 04:24:11;;;;;;;1.90;1.80;;;22.10;41.10;;;;;;5000696;28;20583;-88
2022/09/30 04:26:37;;;;;;;2.07;1.97;;;22.10;41.10;;;;;;5016106;28;20464;-88
2022/09/30 04:29:02;;;;;;;1.93;1.83;;;22.10;41.10;;;;;;5013999;28;20261;-87
2022/09/30 04:31:28;;;;;;;1.93;1.83;;;22.10;41.10;;;;;;5011364;28;20227;-87
2022/09/30 04:33:55;;;;;;;1.43;1.33;;;22.20;41.10;;;;;;5010106;28;20218;-86
2022/09/30 04:36:21;;;;;;;1.73;1.63;;;22.20;41.10;;;;;;5011567;28;20250;-85
2022/09/30 04:38:47;;;;;;;1.90;1.80;;;22.20;41.10;;;;;;4988816;28;20469;-87
2022/09/30 04:41:17;;;;;;;1.80;1.70;;;22.20;41.10;;;;;;4994499;28;20298;-87
2022/09/30 04:43:45;;;;;;;1.90;1.80;;;22.20;41.10;;;;;;5008422;28;20227;-87
2022/09/30 04:46:11;;;;;;;2.10;2.00;;;22.30;41.20;;;;;;5006117;28;20543;-87
2022/09/30 04:48:37;;;;;;;1.90;1.80;;;22.20;41.10;;;;;;5001037;28;20515;-88
2022/09/30 04:51:03;;;;;;;2.00;1.90;;;22.20;41.10;;;;;;5005034;28;20459;-87
2022/09/30 04:53:29;;;;;;;1.60;1.50;;;22.30;41.20;;;;;;5009125;28;20319;-89
2022/09/30 04:55:59;;;;;;;1.93;1.83;;;22.30;41.20;;;;;;5015521;28;20223;-86
2022/09/30 04:58:26;;;;;;;3.33;1.93;;;22.30;41.20;;;;;;5000413;28;20476;-88
2022/09/30 05:00:59;;;;;;;1.60;1.50;;;22.20;41.20;;;;;;5010800;28;20452;-89
2022/09/30 05:03:25;;;;;;;1.87;1.77;;;22.30;41.20;;;;;;5009908;28;20464;-88
2022/09/30 05:05:50;;;;;;;1.90;1.80;;;22.30;41.20;;;;;;5006260;28;20582;-88
2022/09/30 05:08:16;;;;;;;1.93;1.83;;;22.30;41.20;;;;;;5005746;28;20227;-88
2022/09/30 05:10:41;;;;;;;1.70;1.60;;;22.30;41.20;;;;;;5009246;28;20288;-87
2022/09/30 05:13:07;;;;;;;1.90;1.80;;;22.30;41.20;;;;;;5010811;28;20635;-87
2022/09/30 05:15:34;;;;;;;2.13;1.93;;;22.30;41.20;;;;;;5009949;28;20728;-89
2022/09/30 05:18:00;;;;;;;2.07;1.97;;;22.30;41.20;;;;;;5007048;28;20226;-89
2022/09/30 05:20:26;;;;;;;1.80;1.60;;;22.30;41.30;;;;;;5004486;28;20658;-87
2022/09/30 05:22:55;;;;;;;1.73;1.63;;;22.30;41.20;;;;;;5011245;28;20967;-87
2022/09/30 05:25:22;;;;;;;1.90;1.80;;;22.30;41.20;;;;;;5006984;28;20227;-87
2022/09/30 05:27:49;;;;;;;2.20;1.67;;;22.30;41.20;;;;;;5008626;28;20472;-87
2022/09/30 05:30:14;;;;;;;1.70;1.60;;;22.30;41.20;;;;;;4999081;28;20462;-88
2022/09/30 05:32:40;;;;;;;2.13;1.93;;;22.30;41.20;;;;;;5008527;28;20908;-87
2022/09/30 05:35:06;;;;;;;2.07;1.70;;;22.30;41.20;;;;;;5013430;28;20238;-88
2022/09/30 05:37:33;;;;;;;2.17;1.97;;;22.30;41.20;;;;;;5004252;28;20227;-87
2022/09/30 05:39:59;;;;;;;1.93;1.83;;;22.30;41.20;;;;;;5011393;28;20484;-88
2022/09/30 05:42:25;;;;;;;1.90;1.80;;;22.30;41.20;;;;;;5005752;28;20981;-87
2022/09/30 05:44:51;;;;;;;1.83;1.50;;;22.30;41.20;;;;;;4992064;28;20464;-87
2022/09/30 05:47:16;;;;;;;2.30;2.10;;;22.30;41.20;;;;;;5009798;28;20239;-88
2022/09/30 05:49:42;;;;;;;2.00;1.77;;;22.30;41.20;;;;;;5007552;28;20214;-88
2022/09/30 05:52:07;;;;;;;2.10;1.70;;;22.30;41.20;;;;;;5010855;28;20254;-89
2022/09/30 05:54:33;;;;;;;1.80;1.70;;;22.30;41.20;;;;;;5014800;28;20222;-89
2022/09/30 05:56:59;;;;;;;2.00;1.90;;;22.30;41.20;;;;;;5010331;28;20757;-89
2022/09/30 05:59:25;;;;;;;2.67;2.20;;;22.30;41.20;;;;;;5008610;28;20245;-86
2022/09/30 06:01:50;;;;;;;2.30;2.10;;;22.30;41.20;;;;;;5005349;28;20461;-90
2022/09/30 06:04:17;;;;;;;3.50;2.03;;;22.30;41.20;;;;;;5001765;28;20251;-88
2022/09/30 06:06:42;;;;;;;2.13;2.03;;;22.30;41.20;;;;;;5002838;28;20597;-89
2022/09/30 06:09:08;;;;;;;2.27;2.07;;;22.30;41.20;;;;;;5011872;28;20440;-88
2022/09/30 06:11:33;;;;;;;2.43;1.80;;;22.30;41.20;;;;;;5011316;28;20253;-88
2022/09/30 06:13:59;;;;;;;1.70;1.60;;;22.30;41.20;;;;;;5014501;28;20226;-88
2022/09/30 06:16:25;;;;;;;1.70;1.60;;;22.30;41.20;;;;;;5012155;28;20230;-89
2022/09/30 06:18:50;;;;;;;2.70;1.90;;;22.30;41.20;;;;;;5014855;28;20226;-89
2022/09/30 06:21:16;;;;;;;1.77;1.67;;;22.30;41.20;;;;;;5011501;28;20255;-89
2022/09/30 06:23:43;;;;;;;2.07;1.97;;;22.30;41.20;;;;;;5009407;28;20318;-89
2022/09/30 06:26:10;;;;;;;5.83;2.20;;;22.30;41.30;;;;;;5010161;28;20445;-90
2022/09/30 06:28:36;;;;;;;1.93;1.83;;;22.30;41.20;;;;;;5015927;28;20574;-89
2022/09/30 06:31:03;;;;;;;1.83;1.73;;;22.30;41.20;;;;;;5009153;28;20461;-89
2022/09/30 06:33:29;;;;;;;2.03;1.93;;;22.30;41.20;;;;;;4994048;28;20456;-90
2022/09/30 06:35:54;;;;;;;5.20;2.37;;;22.30;41.20;;;;;;5015732;28;20975;-88
2022/09/30 06:38:22;;;;;;;2.33;1.70;;;22.40;41.20;;;;;;5014325;28;20589;-89
2022/09/30 06:40:49;;;;;;;2.30;1.70;;;22.40;41.20;;;;;;5002087;28;20233;-87
2022/09/30 06:43:15;;;;;;;2.00;1.90;;;22.30;41.10;;;;;;5014937;28;20460;-90
2022/09/30 06:45:41;;;;;;;2.23;1.90;;;22.30;41.20;;;;;;5011227;28;20464;-90
2022/09/30 06:48:08;;;;;;;2.10;2.00;;;22.30;41.20;;;;;;5018470;28;20505;-87
2022/09/30 06:50:34;;;;;;;1.73;1.63;;;22.30;41.20;;;;;;5012187;28;20223;-90
2022/09/30 06:53:02;;;;;;;1.90;1.80;;;22.40;41.30;;;;;;4997751;28;20467;-90
2022/09/30 06:55:29;;;;;;;2.10;1.90;;;22.30;41.20;;;;;;5012788;28;20518;-87
2022/09/30 06:57:55;;;;;;;2.53;2.33;;;22.30;41.20;;;;;;5013793;28;21551;-89
2022/09/30 07:00:21;;;;;;;2.20;1.93;;;22.30;41.10;;;;;;5012172;28;20477;-90
2022/09/30 07:02:47;;;;;;;2.23;2.00;;;22.30;41.10;;;;;;4995920;28;20464;-91
2022/09/30 07:05:14;;;;;;;2.57;2.37;;;22.30;41.10;;;;;;5017526;28;20464;-87
2022/09/30 07:07:41;;;;;;;2.17;2.07;;;22.30;41.10;;;;;;5012191;28;20488;-90
2022/09/30 07:10:07;;;;;;;2.40;1.73;;;22.30;41.00;;;;;;5015289;28;20993;-90
2022/09/30 07:12:33;;;;;;;2.37;2.20;;;22.30;41.10;;;;;;5017111;28;20464;-91
2022/09/30 07:14:59;;;;;;;2.17;1.97;;;22.30;41.00;;;;;;5014319;28;20484;-87
2022/09/30 07:17:25;;;;;;;2.40;2.20;;;22.30;41.10;;;;;;5015498;28;20231;-89
2022/09/30 07:19:51;;;;;;;2.73;2.10;;;22.30;41.00;;;;;;5013961;28;20229;-87
2022/09/30 07:22:27;;;;;;;3.13;2.20;;;22.30;41.00;;;;;;5012482;28;20459;-87
2022/09/30 07:24:53;;;;;;;2.27;2.07;;;22.30;41.00;;;;;;5012558;28;20307;-89
2022/09/30 07:27:19;;;;;;;2.23;2.13;;;22.30;41.00;;;;;;5013501;28;20479;-89
2022/09/30 07:29:46;;;;;;;1.87;1.77;;;22.30;41.10;;;;;;5009785;28;20455;-87
2022/09/30 07:32:12;;;;;;;2.37;2.17;;;22.30;41.00;;;;;;5010105;28;20523;-88
2022/09/30 07:34:42;;;;;;;1.90;1.80;;;22.30;41.00;;;;;;5009609;28;20480;-89
2022/09/30 07:37:08;;;;;;;2.47;1.77;;;22.30;40.90;;;;;;5009748;28;20463;-88
2022/09/30 07:39:35;;;;;;;2.17;2.07;;;22.30;41.00;;;;;;4991828;28;20867;-90
2022/09/30 07:42:02;;;;;;;3.60;1.90;;;22.30;41.00;;;;;;4993135;28;20805;-90
2022/09/30 07:44:29;;;;;;;2.07;1.97;;;22.30;41.10;;;;;;5015656;28;20456;-89
2022/09/30 07:46:54;;;;;;;2.33;2.13;;;22.30;41.00;;;;;;4996168;28;21011;-90
2022/09/30 07:49:24;;;;;;;1.83;1.73;;;22.30;41.00;;;;;;5013404;28;20466;-86
2022/09/30 07:51:50;;;;;;;3.07;1.97;;;22.30;41.00;;;;;;4985850;28;20223;-86
2022/09/30 07:54:19;;;;;;;4.30;2.10;;;22.30;40.90;;;;;;5011204;28;20469;-87
2022/09/30 07:56:45;;;;;;;2.40;2.20;;;22.30;41.00;;;;;;5014643;28;21050;-85
2022/09/30 07:59:11;;;;;;;2.60;1.87;;;22.30;41.00;;;;;;5008487;28;20460;-88
2022/09/30 08:01:37;;;;;;;1.80;1.70;;;22.30;41.00;;;;;;5011629;28;21247;-88
2022/09/30 08:04:06;;;;;;;2.00;1.90;;;22.40;41.10;;;;;;5009184;28;20526;-89
2022/09/30 08:06:36;;;;;;;2.40;2.20;;;22.30;41.00;;;;;;5007939;28;20231;-88
2022/09/30 08:09:03;;;;;;;2.47;2.27;;;22.30;41.00;;;;;;5015822;28;20471;-89
2022/09/30 08:11:33;;;;;;;1.90;1.80;;;22.40;41.20;;;;;;5013948;28;20559;-89
2022/09/30 08:13:58;;;;;;;2.07;1.87;;;22.30;41.00;;;;;;5015437;28;20464;-90
2022/09/30 08:16:25;;;;;;;2.00;1.87;;;22.30;41.10;;;;;;5016558;28;20447;-92
2022/09/30 08:18:55;;;;;;;1.93;1.83;;;22.30;41.00;;;;;;5011918;28;20223;-89
2022/09/30 08:21:21;;;;;;;2.43;2.23;;;22.40;41.10;;;;;;4996076;28;20994;-90
2022/09/30 08:23:47;;;;;;;2.37;2.17;;;22.30;41.00;;;;;;5009683;28;20468;-91
2022/09/30 08:26:14;;;;;;;1.90;1.80;;;22.40;41.20;;;;;;5016285;28;20238;-92
2022/09/30 08:28:40;;;;;;;2.20;2.10;;;22.30;41.10;;;;;;5007957;28;20281;-89
2022/09/30 08:31:09;;;;;;;1.70;1.60;;;22.30;41.00;;;;;;5012432;28;20456;-90
2022/09/30 08:33:35;;;;;;;2.13;2.03;;;22.30;41.00;;;;;;5014353;28;20452;-91
2022/09/30 08:36:05;;;;;;;2.20;2.00;;;22.40;41.10;;;;;;4996418;28;20472;-89
2022/09/30 08:38:31;;;;;;;1.77;1.63;;;22.40;41.10;;;;;;5016438;28;20238;-91
2022/09/30 08:41:26;;;;;;;2.20;2.00;;;22.40;41.10;;;;;;5013379;28;20455;-93
2022/09/30 08:44:20;;;;;;;1.77;1.67;;;22.30;41.00;;;;;;5013166;28;20231;-89
2022/09/30 08:47:02;;;;;;;3.83;1.93;;;22.30;41.00;;;;;;4996692;28;20493;-92
2022/09/30 08:49:55;;;;;;;1.90;1.80;;;22.40;41.20;;;;;;5018851;28;20467;-91
2022/09/30 08:52:28;;;;;;;1.90;1.67;;;22.40;41.10;;;;;;5018888;28;20956;-90
2022/09/30 08:54:55;;;;;;;1.90;1.80;;;22.40;41.20;;;;;;5020612;28;20455;-89
2022/09/30 08:57:22;;;;;;;1.93;1.60;;;22.30;41.10;;;;;;5018843;28;20471;-86
2022/09/30 09:00:04;;;;;;;1.90;1.80;;;22.40;41.20;;;;;;5015819;28;20561;-88
2022/09/30 09:02:33;;;;;;;3.27;1.80;;;22.40;41.10;;;;;;5017723;28;20456;-88
2022/09/30 09:05:04;;;;;;;2.33;2.13;;;22.40;41.20;;;;;;5015172;28;20987;-90
2022/09/30 09:07:46;;;;;;;1.73;1.63;;;22.40;41.10;;;;;;5017970;28;20567;-90
2022/09/30 09:10:15;;;;;;;1.70;1.60;;;22.40;41.10;;;;;;5015975;28;20464;-88
2022/09/30 09:12:49;;;;;;;2.10;2.00;;;22.40;41.10;;;;;;5017544;28;20460;-90
2022/09/30 09:15:23;;;;;;;1.57;1.47;;;22.40;41.10;;;;;;5012066;28;20468;-86
2022/09/30 09:17:54;;;;;;;1.80;1.70;;;22.40;41.10;;;;;;5017701;28;20485;-91
2022/09/30 09:20:24;;;;;;;2.20;2.10;;;22.40;41.10;;;;;;5016363;28;20971;-90
2022/09/30 09:22:51;;;;;;;1.83;1.57;;;22.40;41.10;;;;;;5018569;28;20555;-91
2022/09/30 09:25:26;;;;;;;1.50;1.40;;;22.40;41.10;;;;;;5019679;28;20451;-90
2022/09/30 09:27:58;;;;;;;2.20;2.10;;;22.40;41.10;;;;;;5018647;28;20467;-88
2022/09/30 09:30:27;;;;;;;2.00;1.90;;;22.40;41.00;;;;;;5015869;28;20487;-90
2022/09/30 09:32:56;;;;;;;2.57;2.00;;;22.40;41.00;;;;;;5014090;28;20527;-93
2022/09/30 09:35:35;;;;;;;1.70;1.60;;;22.40;41.00;;;;;;5013986;28;20570;-90
2022/09/30 09:38:24;;;;;;;1.93;1.73;;;22.40;41.00;;;;;;5013314;28;20469;-90
2022/09/30 09:41:14;;;;;;;1.60;1.50;;;22.40;41.00;;;;;;5013174;28;20456;-88
2022/09/30 09:43:49;;;;;;;1.70;1.60;;;22.40;41.00;;;;;;5015920;28;20457;-91
2022/09/30 09:46:23;;;;;;;1.80;1.70;;;22.40;41.10;;;;;;5018274;28;20517;-92
2022/09/30 09:48:55;;;;;;;1.50;1.40;;;22.40;41.10;;;;;;5016454;28;20594;-88
2022/09/30 09:51:36;;;;;;;1.80;1.70;;;22.40;41.00;;;;;;5001344;28;20543;-89
2022/09/30 09:54:03;;;;;;;1.87;1.77;;;22.40;41.00;;;;;;5018072;28;20476;-91
2022/09/30 09:56:32;;;;;;;1.70;1.60;;;22.40;41.00;;;;;;5015284;28;20471;-89
2022/09/30 09:59:04;;;;;;;1.70;1.60;;;22.50;41.00;;;;;;5011398;28;20457;-87
2022/09/30 10:01:35;;;;;;;1.60;1.50;;;22.40;41.00;;;;;;5013104;28;20499;-87
2022/09/30 10:04:18;;;;;;;2.17;2.07;;;22.40;41.10;;;;;;5015478;28;20452;-87
2022/09/30 10:06:53;;;;;;;3.20;1.90;;;22.40;41.00;;;;;;5022898;28;20464;-87
2022/09/30 10:09:34;;;;;;;2.13;1.73;;;22.40;40.90;;;;;;5018144;28;20468;-87
2022/09/30 10:12:05;;;;;;;1.70;1.60;;;22.40;40.90;;;;;;5018183;28;20469;-87
2022/09/30 10:14:47;;;;;;;2.30;1.97;;;22.40;41.00;;;;;;5019311;28;20971;-87
2022/09/30 10:17:31;;;;;;;1.70;1.60;;;22.40;40.90;;;;;;5018197;28;20460;-87
2022/09/30 10:20:02;;;;;;;1.77;1.67;;;22.40;40.80;;;;;;5019643;28;20453;-87
2022/09/30 10:22:30;;;;;;;2.03;1.80;;;22.50;40.90;;;;;;5016873;28;20502;-87
2022/09/30 10:25:18;;;;;;;2.20;2.10;;;22.50;40.90;;;;;;5022477;28;20463;-87
2022/09/30 10:27:49;;;;;;;1.80;1.70;;;22.50;40.90;;;;;;5020137;28;20465;-87
2022/09/30 10:30:29;;;;;;;1.90;1.80;;;22.50;40.90;;;;;;5019222;28;20555;-89
2022/09/30 10:32:55;;;;;;;2.50;1.80;;;22.50;40.80;;;;;;5016926;28;20462;-87
2022/09/30 10:35:23;;;;;;;1.60;1.50;;;22.50;40.90;;;;;;5016932;28;20475;-87
2022/09/30 10:37:53;;;;;;;1.87;1.77;;;22.50;40.90;;;;;;5018712;28;20709;-88
2022/09/30 10:40:21;;;;;;;1.87;1.77;;;22.50;40.80;;;;;;5019017;28;20463;-87
2022/09/30 10:42:47;;;;;;;1.87;1.77;;;22.50;40.80;;;;;;5015047;28;20511;-88
2022/09/30 10:45:21;;;;;;;1.60;1.50;;;22.50;40.90;;;;;;5018182;28;20484;-89
2022/09/30 10:47:50;;;;;;;1.70;1.60;;;22.50;40.90;;;;;;5013398;28;20236;-90
2022/09/30 10:50:20;;;;;;;2.23;1.80;;;22.50;40.90;;;;;;5016390;28;20456;-87
2022/09/30 10:52:58;;;;;;;1.90;1.80;;;22.50;40.90;;;;;;5020550;28;20487;-88
2022/09/30 10:55:28;;;;;;;1.90;1.70;;;22.50;40.90;;;;;;5019544;28;20515;-89
2022/09/30 10:58:20;;;;;;;3.00;1.80;;;22.50;40.90;;;;;;5017231;28;20534;-88
2022/09/30 11:00:49;;;;;;;1.87;1.77;;;22.50;40.90;;;;;;5018666;28;20455;-85
2022/09/30 11:03:29;;;;;;;1.77;1.67;;;22.50;40.90;;;;;;5023103;28;20461;-89
2022/09/30 11:05:58;;;;;;;2.00;1.90;;;22.50;41.10;;;;;;5016623;28;21035;-90
2022/09/30 11:08:43;;;;;;;1.97;1.80;;;22.50;40.90;;;;;;5016738;28;20548;-89
2022/09/30 11:11:18;;;;;;;2.20;1.57;;;22.50;40.90;;;;;;5016290;28;20490;-88
2022/09/30 11:13:56;;;;;;;2.17;1.77;;;22.50;41.00;;;;;;5019024;28;20454;-89
2022/09/30 11:16:43;;;;;;;1.97;1.60;;;22.50;40.90;;;;;;5015929;28;20542;-89
2022/09/30 11:19:38;;;;;;;1.90;1.80;;;22.50;40.90;;;;;;5018533;28;20475;-89
2022/09/30 11:22:26;;;;;;;2.23;1.60;;;22.50;40.90;;;;;;5012790;28;20530;-90
2022/09/30 11:24:54;;;;;;;1.80;1.53;;;22.50;41.00;;;;;;5017863;28;20473;-88
2022/09/30 11:27:19;;;;;;;1.87;1.77;;;22.50;41.00;;;;;;5015871;28;20953;-89
2022/09/30 11:30:11;;;;;;;1.60;1.50;;;22.50;41.00;;;;;;5016526;28;20456;-90
2022/09/30 11:32:48;;;;;;;1.97;1.73;;;22.50;41.00;;;;;;5016705;28;20646;-89
2022/09/30 11:35:34;;;;;;;1.53;1.43;;;22.50;41.00;;;;;;5016624;28;20484;-91
2022/09/30 11:38:14;;;;;;;1.70;1.60;;;22.50;41.00;;;;;;5015823;28;20974;-90
2022/09/30 11:41:26;;;;;;;1.80;1.70;;;22.50;41.00;;;;;;5017734;28;20464;-89
2022/09/30 11:44:15;;;;;;;1.47;1.37;;;22.50;41.00;;;;;;5018727;28;20466;-90
2022/09/30 11:46:58;;;;;;;1.63;1.53;;;22.50;41.10;;;;;;5012883;28;20467;-90
2022/09/30 11:49:51;;;;;;;1.83;1.73;;;22.50;41.00;;;;;;5016289;28;20581;-89
2022/09/30 11:52:35;;;;;;;12.13;9.80;;;22.40;41.10;;;;;;5013400;28;20471;-88
2022/09/30 11:55:35;;;;;;;2.43;2.23;;;22.50;40.80;;;;;;5007065;28;20496;-89
2022/09/30 11:58:14;;;;;;;2.07;1.97;;;22.50;40.80;;;;;;5010442;28;20494;-89
2022/09/30 12:00:46;;;;;;;2.30;2.20;;;22.40;40.70;;;;;;5011280;28;20479;-88
2022/09/30 12:03:36;;;;;;;3.00;2.80;;;22.40;40.70;;;;;;5008351;28;20547;-87
2022/09/30 12:06:09;;;;;;;2.80;2.60;;;22.40;40.70;;;;;;5017916;28;20468;-89
2022/09/30 12:08:47;;;;;;;2.30;2.20;;;22.40;40.90;;;;;;5023851;28;20528;-89
2022/09/30 12:11:22;;;;;;;2.47;2.30;;;22.40;40.90;;;;;;5016799;28;20471;-89
2022/09/30 12:13:56;;;;;;;2.67;2.47;;;22.40;40.90;;;;;;5014989;28;20447;-89
2022/09/30 12:16:25;;;;;;;2.90;2.70;;;22.40;41.00;;;;;;5014544;28;20829;-86
2022/09/30 12:19:21;;;;;;;2.47;2.27;;;22.40;41.70;;;;;;5011278;28;21068;-89
2022/09/30 12:22:15;;;;;;;2.63;2.43;;;22.40;41.00;;;;;;5017606;28;20450;-89
2022/09/30 12:24:44;;;;;;;3.57;2.43;;;22.40;41.70;;;;;;5015004;28;20469;-89
2022/09/30 12:27:40;;;;;;;3.17;2.97;;;22.40;41.00;;;;;;5017565;28;20513;-88
2022/09/30 12:30:16;;;;;;;3.17;2.87;;;22.40;41.10;;;;;;5015381;28;20597;-89
2022/09/30 12:32:48;;;;;;;3.43;3.10;;;22.40;41.10;;;;;;5016816;28;20475;-89
2022/09/30 12:35:38;;;;;;;3.97;3.30;;;22.40;41.10;;;;;;5015877;28;20472;-89
2022/09/30 12:38:18;;;;;;;3.60;3.30;;;22.40;41.20;;;;;;5016077;28;20475;-88
2022/09/30 12:41:01;;;;;;;2.97;2.77;;;22.40;41.30;;;;;;5013991;28;20455;-89
2022/09/30 12:44:03;;;;;;;3.07;2.97;;;22.40;41.20;;;;;;5015573;28;20471;-89
2022/09/30 12:46:54;;;;;;;3.27;3.07;;;22.40;41.20;;;;;;5015449;28;20460;-88
2022/09/30 12:49:24;;;;;;;3.23;3.03;;;22.40;41.30;;;;;;5012979;28;20460;-89
2022/09/30 12:51:54;;;;;;;3.33;3.07;;;22.40;41.30;;;;;;5018143;28;20463;-89
2022/09/30 12:54:24;;;;;;;4.10;3.47;;;22.40;41.30;;;;;;5015861;28;20613;-89
2022/09/30 12:56:59;;;;;;;3.30;3.10;;;22.40;41.30;;;;;;5016599;28;20456;-89
2022/09/30 12:59:28;;;;;;;4.53;3.37;;;22.40;41.30;;;;;;5014281;28;20458;-89
2022/09/30 13:01:56;;;;;;;3.50;3.23;;;22.40;41.30;;;;;;5017054;28;20455;-89
2022/09/30 13:04:38;;;;;;;4.80;4.33;;;22.40;41.30;;;;;;5015386;28;20462;-88
2022/09/30 13:07:08;;;;;;;3.90;3.50;;;22.40;41.30;;;;;;5001982;28;20827;-89
2022/09/30 13:09:53;;;;;;;3.83;3.53;;;22.40;41.30;;;;;;5014682;28;20488;-89
2022/09/30 13:12:40;;;;;;;3.73;3.47;;;22.40;41.40;;;;;;5020456;28;20593;-89
2022/09/30 13:15:38;;;;;;;3.27;3.07;;;22.40;41.30;;;;;;5021036;28;20456;-88
2022/09/30 13:18:19;;;;;;;3.83;3.63;;;22.40;41.30;;;;;;5013294;28;20472;-87
2022/09/30 13:20:55;;;;;;;3.50;3.20;;;22.40;41.30;;;;;;5016637;28;20905;-87
2022/09/30 13:23:40;;;;;;;4.10;3.80;;;22.30;41.20;;;;;;5015434;28;20503;-88